createdAt,value
2017-07-19T00:00:18.507Z,83.00
2017-07-19T00:01:18.133Z,82.91
2017-07-19T00:02:18.162Z,82.46
2017-07-19T00:03:18.290Z,82.28
2017-07-19T00:04:18.009Z,82.04
2017-07-19T00:05:18.031Z,82.03
2017-07-19T00:06:18.050Z,82.86
2017-07-19T00:07:17.974Z,83.11
2017-07-19T00:08:18.028Z,82.88
2017-07-19T00:09:17.958Z,83.02
2017-07-19T00:10:17.982Z,82.86
2017-07-19T00:11:17.998Z,83.21
2017-07-19T00:12:18.521Z,83.21
2017-07-19T00:13:18.170Z,83.45
2017-07-19T00:14:18.235Z,82.91
2017-07-19T00:15:18.560Z,82.53
2017-07-19T00:16:18.184Z,81.80
2017-07-19T00:17:18.222Z,81.88
2017-07-19T00:18:18.394Z,82.74
2017-07-19T00:19:18.219Z,82.93
2017-07-19T00:20:18.550Z,82.66
2017-07-19T00:21:18.070Z,82.80
2017-07-19T00:22:17.991Z,83.16
2017-07-19T00:23:18.016Z,83.22
2017-07-19T00:24:18.039Z,82.90
2017-07-19T00:25:19.274Z,83.60
2017-07-19T00:26:18.089Z,83.59
2017-07-19T00:27:18.319Z,83.12
2017-07-19T00:28:18.059Z,83.40
2017-07-19T00:29:18.287Z,83.65
2017-07-19T00:30:18.618Z,83.76
2017-07-19T00:31:18.260Z,83.82
2017-07-19T00:32:18.279Z,83.90
2017-07-19T00:33:18.335Z,83.79
2017-07-19T00:34:18.310Z,83.84
2017-07-19T00:35:18.541Z,83.58
2017-07-19T00:36:18.260Z,84.43
2017-07-19T00:37:18.076Z,83.75
2017-07-19T00:38:18.110Z,83.78
2017-07-19T00:39:18.042Z,84.21
2017-07-19T00:40:18.085Z,83.98
2017-07-19T00:41:18.117Z,84.33
2017-07-19T00:42:18.051Z,84.68
2017-07-19T00:43:18.181Z,84.51
2017-07-19T00:44:18.111Z,84.91
2017-07-19T00:45:18.628Z,84.89
2017-07-19T00:46:18.356Z,84.86
2017-07-19T00:47:18.379Z,84.90
2017-07-19T00:48:18.311Z,84.51
2017-07-19T00:49:18.334Z,85.17
2017-07-19T00:50:18.578Z,84.77
2017-07-19T00:51:18.423Z,85.10
2017-07-19T00:52:18.345Z,85.13
2017-07-19T00:53:18.368Z,84.50
2017-07-19T00:54:18.107Z,84.61
2017-07-19T00:55:18.129Z,85.37
2017-07-19T00:56:18.153Z,85.80
2017-07-19T00:57:18.103Z,85.33
2017-07-19T00:58:18.221Z,85.06
2017-07-19T00:59:18.168Z,85.71
2017-07-19T01:03:13.707Z,85.16
2017-07-19T01:03:14.314Z,85.49
2017-07-19T01:03:15.023Z,85.60
2017-07-19T01:05:48.016Z,85.95
2017-07-19T01:05:49.992Z,85.93
2017-07-19T01:05:50.671Z,86.52
2017-07-19T01:10:15.730Z,84.56
2017-07-19T01:10:16.561Z,85.94
2017-07-19T01:10:45.894Z,84.56
2017-07-19T01:10:46.520Z,85.94
2017-07-19T01:10:47.127Z,85.85
2017-07-19T01:10:47.735Z,85.48
2017-07-19T01:10:48.342Z,85.41
2017-07-19T01:11:18.412Z,86.30
2017-07-19T01:14:04.725Z,86.55
2017-07-19T01:14:05.744Z,85.80
2017-07-19T01:14:18.196Z,85.77
2017-07-19T01:17:53.622Z,85.82
2017-07-19T01:17:54.230Z,86.01
2017-07-19T01:17:54.837Z,86.10
2017-07-19T01:21:08.417Z,86.31
2017-07-19T01:21:09.227Z,86.19
2017-07-19T01:21:09.833Z,86.22
2017-07-19T01:23:44.632Z,86.33
2017-07-19T01:23:45.442Z,86.16
2017-07-19T01:23:46.712Z,86.55
2017-07-19T01:27:05.665Z,86.30
2017-07-19T01:27:06.695Z,86.08
2017-07-19T01:27:07.302Z,85.91
2017-07-19T01:29:44.625Z,85.98
2017-07-19T01:29:45.688Z,86.08
2017-07-19T01:29:47.040Z,85.82
2017-07-19T01:32:30.674Z,86.03
2017-07-19T01:32:31.687Z,85.83
2017-07-19T01:32:32.297Z,86.12
2017-07-19T01:35:44.598Z,86.40
2017-07-19T01:35:45.407Z,86.27
2017-07-19T01:35:46.499Z,86.52
2017-07-19T01:38:31.366Z,86.54
2017-07-19T01:38:32.377Z,87.35
2017-07-19T01:38:32.986Z,85.75
2017-07-19T01:41:44.703Z,87.10
2017-07-19T01:41:45.512Z,87.65
2017-07-19T01:41:46.917Z,87.59
2017-07-19T01:44:32.360Z,87.50
2017-07-19T01:44:32.965Z,88.34
2017-07-19T01:44:33.576Z,87.99
2017-07-19T01:48:01.593Z,87.72
2017-07-19T01:48:02.202Z,87.43
2017-07-19T01:48:02.809Z,87.85
2017-07-19T01:50:39.625Z,87.17
2017-07-19T01:50:40.233Z,87.76
2017-07-19T01:50:40.838Z,87.84
2017-07-19T01:57:05.621Z,88.22
2017-07-19T01:57:06.434Z,88.53
2017-07-19T01:57:07.045Z,87.79
2017-07-19T01:57:07.652Z,87.74
2017-07-19T01:57:08.360Z,87.05
2017-07-19T01:57:08.968Z,86.98
2017-07-19T01:59:45.582Z,86.63
2017-07-19T01:59:47.334Z,86.50
2017-07-19T01:59:48.490Z,86.40
2017-07-19T02:00:16.169Z,86.40
2017-07-19T02:00:18.282Z,86.54
2017-07-19T02:01:18.519Z,86.72
2017-07-19T02:02:18.799Z,87.82
2017-07-19T02:03:18.840Z,86.99
2017-07-19T02:04:18.359Z,86.17
2017-07-19T02:05:18.382Z,86.57
2017-07-19T02:06:18.299Z,86.53
2017-07-19T02:07:18.827Z,87.28
2017-07-19T02:08:18.586Z,87.09
2017-07-19T02:09:18.538Z,87.90
2017-07-19T02:10:18.564Z,87.35
2017-07-19T02:11:18.584Z,87.13
2017-07-19T02:12:18.869Z,87.19
2017-07-19T02:13:18.594Z,87.79
2017-07-19T02:14:18.315Z,88.17
2017-07-19T02:15:18.390Z,88.20
2017-07-19T02:16:18.407Z,88.72
2017-07-19T02:17:18.827Z,88.74
2017-07-19T02:18:18.851Z,88.36
2017-07-19T02:19:18.379Z,88.83
2017-07-19T02:20:18.346Z,89.06
2017-07-19T02:21:18.366Z,88.20
2017-07-19T02:22:18.885Z,88.71
2017-07-19T02:23:18.401Z,87.64
2017-07-19T02:24:18.535Z,87.35
2017-07-19T02:25:18.574Z,87.50
2017-07-19T02:26:18.616Z,88.38
2017-07-19T02:27:18.842Z,87.21
2017-07-19T02:28:18.559Z,86.97
2017-07-19T02:29:18.609Z,87.97
2017-07-19T02:30:18.631Z,88.38
2017-07-19T02:31:18.661Z,88.41
2017-07-19T02:32:18.887Z,88.31
2017-07-19T02:33:18.922Z,87.89
2017-07-19T02:34:18.447Z,88.26
2017-07-19T02:35:18.375Z,87.53
2017-07-19T02:36:18.405Z,88.53
2017-07-19T02:37:18.658Z,87.61
2017-07-19T02:38:18.487Z,88.48
2017-07-19T02:39:18.409Z,88.04
2017-07-19T02:40:18.634Z,88.43
2017-07-19T02:41:18.666Z,88.51
2017-07-19T02:42:18.888Z,88.66
2017-07-19T02:43:18.615Z,89.39
2017-07-19T02:44:18.628Z,89.80
2017-07-19T02:45:18.652Z,88.76
2017-07-19T02:46:18.683Z,88.88
2017-07-19T02:47:18.740Z,88.39
2017-07-19T02:48:18.759Z,87.79
2017-07-19T02:49:18.506Z,87.97
2017-07-19T02:50:18.434Z,88.32
2017-07-19T02:51:18.456Z,88.40
2017-07-19T02:52:18.485Z,88.03
2017-07-19T02:53:18.529Z,88.32
2017-07-19T02:54:18.451Z,88.64
2017-07-19T02:55:18.679Z,89.00
2017-07-19T02:56:18.824Z,88.09
2017-07-19T02:57:18.758Z,88.00
2017-07-19T02:58:18.706Z,87.66
2017-07-19T02:59:18.706Z,87.54
2017-07-19T03:00:18.657Z,87.70
2017-07-19T03:01:18.742Z,88.48
2017-07-19T03:02:18.808Z,88.45
2017-07-19T03:03:18.758Z,88.03
2017-07-19T03:04:18.484Z,88.04
2017-07-19T03:05:18.515Z,88.37
2017-07-19T03:06:18.531Z,88.44
2017-07-19T03:07:18.566Z,88.75
2017-07-19T03:08:18.498Z,88.65
2017-07-19T03:09:18.523Z,88.03
2017-07-19T03:10:18.552Z,88.49
2017-07-19T03:11:18.478Z,88.34
2017-07-19T03:12:18.811Z,88.50
2017-07-19T03:13:18.731Z,89.31
2017-07-19T03:14:18.752Z,88.79
2017-07-19T03:15:18.783Z,88.58
2017-07-19T03:16:18.708Z,88.96
2017-07-19T03:17:18.746Z,88.95
2017-07-19T03:18:18.778Z,88.44
2017-07-19T03:19:18.696Z,88.74
2017-07-19T03:20:18.534Z,89.48
2017-07-19T03:21:18.559Z,88.29
2017-07-19T03:22:18.579Z,87.28
2017-07-19T03:23:18.603Z,89.00
2017-07-19T03:24:18.519Z,89.01
2017-07-19T03:25:18.546Z,89.08
2017-07-19T03:26:18.564Z,89.43
2017-07-19T03:27:18.690Z,88.43
2017-07-19T03:28:18.618Z,88.44
2017-07-19T03:29:18.541Z,88.45
2017-07-19T03:30:18.767Z,88.46
2017-07-19T03:31:18.795Z,89.12
2017-07-19T03:32:18.817Z,89.18
2017-07-19T03:33:18.855Z,89.01
2017-07-19T03:34:18.788Z,89.61
2017-07-19T03:35:18.839Z,89.79
2017-07-19T03:36:18.568Z,89.79
2017-07-19T03:37:18.611Z,88.57
2017-07-19T03:38:18.631Z,87.94
2017-07-19T03:39:42.203Z,87.94
2017-07-19T03:41:16.403Z,88.53
2017-07-19T03:41:17.216Z,87.52
2017-07-19T03:41:18.625Z,87.90
2017-07-19T03:42:18.860Z,88.38
2017-07-19T03:43:18.786Z,88.88
2017-07-19T03:44:18.809Z,88.32
2017-07-19T03:45:18.838Z,88.09
2017-07-19T03:46:18.866Z,88.11
2017-07-19T03:47:18.993Z,88.23
2017-07-19T03:48:18.914Z,88.02
2017-07-19T03:49:18.837Z,87.57
2017-07-19T03:50:18.861Z,87.81
2017-07-19T03:51:18.887Z,87.90
2017-07-19T03:52:18.916Z,88.16
2017-07-19T03:53:18.655Z,88.62
2017-07-19T03:54:18.682Z,87.79
2017-07-19T03:55:18.618Z,87.00
2017-07-19T03:56:18.640Z,87.41
2017-07-19T03:57:18.671Z,87.53
2017-07-19T03:58:18.623Z,87.01
2017-07-19T03:59:18.651Z,86.42
2017-07-19T04:00:18.695Z,87.11
2017-07-19T04:01:18.929Z,86.57
2017-07-19T04:02:18.877Z,86.16
2017-07-19T04:03:18.901Z,85.86
2017-07-19T04:04:18.930Z,85.08
2017-07-19T04:05:18.860Z,85.79
2017-07-19T04:06:18.882Z,85.96
2017-07-19T04:07:18.919Z,86.80
2017-07-19T04:08:18.853Z,86.04
2017-07-19T04:09:18.897Z,85.46
2017-07-19T04:10:19.252Z,85.63
2017-07-19T04:11:18.686Z,85.88
2017-07-19T04:12:18.719Z,86.16
2017-07-19T04:13:18.755Z,85.74
2017-07-19T04:14:18.696Z,85.48
2017-07-19T04:15:18.740Z,85.92
2017-07-19T04:16:18.668Z,85.96
2017-07-19T04:17:18.986Z,85.54
2017-07-19T04:18:18.923Z,85.65
2017-07-19T04:19:18.950Z,85.56
2017-07-19T04:20:18.972Z,85.82
2017-07-19T04:21:18.893Z,86.09
2017-07-19T04:22:18.950Z,86.04
2017-07-19T04:23:18.894Z,86.34
2017-07-19T04:24:18.934Z,86.46
2017-07-19T04:25:18.973Z,85.23
2017-07-19T04:26:18.697Z,85.41
2017-07-19T04:27:18.764Z,85.42
2017-07-19T04:28:18.795Z,85.32
2017-07-19T04:29:18.747Z,84.96
2017-07-19T04:30:18.786Z,84.93
2017-07-19T04:31:18.712Z,84.93
2017-07-19T04:32:18.757Z,84.87
2017-07-19T04:33:18.788Z,85.51
2017-07-19T04:34:18.926Z,85.10
2017-07-19T04:35:19.012Z,84.35
2017-07-19T04:36:18.957Z,84.92
2017-07-19T04:37:18.993Z,84.90
2017-07-19T04:38:18.939Z,83.88
2017-07-19T04:39:18.975Z,83.83
2017-07-19T04:40:19.016Z,84.58
2017-07-19T04:41:18.947Z,84.43
2017-07-19T04:42:18.779Z,85.05
2017-07-19T04:43:18.832Z,84.99
2017-07-19T04:44:18.798Z,85.42
2017-07-19T04:45:18.826Z,84.92
2017-07-19T04:46:18.764Z,84.87
2017-07-19T04:47:18.842Z,84.49
2017-07-19T04:48:18.756Z,84.56
2017-07-19T04:49:18.846Z,83.92
2017-07-19T04:50:18.817Z,85.17
2017-07-19T04:51:19.062Z,84.25
2017-07-19T04:52:19.012Z,84.02
2017-07-19T04:53:19.074Z,85.91
2017-07-19T04:54:19.043Z,83.57
2017-07-19T04:55:19.079Z,82.23
2017-07-19T04:56:18.985Z,83.36
2017-07-19T04:57:18.975Z,82.61
2017-07-19T04:58:19.069Z,81.86
2017-07-19T04:59:18.869Z,81.75
2017-07-19T05:00:18.897Z,80.50
2017-07-19T05:01:18.883Z,80.57
2017-07-19T05:02:18.889Z,80.85
2017-07-19T05:03:18.809Z,80.90
2017-07-19T05:04:18.809Z,80.95
2017-07-19T05:05:18.924Z,80.53
2017-07-19T05:06:18.848Z,79.86
2017-07-19T05:07:19.106Z,80.07
2017-07-19T05:08:19.096Z,79.77
2017-07-19T05:09:19.071Z,79.75
2017-07-19T05:10:19.188Z,80.33
2017-07-19T05:11:19.059Z,81.12
2017-07-19T05:12:19.036Z,80.72
2017-07-19T05:13:19.083Z,80.71
2017-07-19T05:14:19.117Z,81.35
2017-07-19T05:15:19.136Z,81.18
2017-07-19T05:16:18.863Z,81.40
2017-07-19T05:17:18.941Z,81.00
2017-07-19T05:18:18.900Z,80.03
2017-07-19T05:19:18.867Z,80.79
2017-07-19T05:20:18.943Z,79.87
2017-07-19T05:21:18.924Z,79.86
2017-07-19T05:22:18.906Z,79.74
2017-07-19T05:23:19.098Z,81.41
2017-07-19T05:24:19.065Z,80.07
2017-07-19T05:25:19.145Z,80.32
2017-07-19T05:26:19.133Z,80.08
2017-07-19T05:27:19.142Z,79.67
2017-07-19T05:28:19.118Z,78.25
2017-07-19T05:29:19.092Z,79.03
2017-07-19T05:30:19.165Z,79.24
2017-07-19T05:31:18.901Z,79.92
2017-07-19T05:32:18.952Z,79.61
2017-07-19T05:33:18.927Z,80.05
2017-07-19T05:34:18.980Z,80.31
2017-07-19T05:35:19.012Z,79.23
2017-07-19T05:36:18.905Z,78.15
2017-07-19T05:37:18.963Z,77.74
2017-07-19T05:38:18.923Z,78.44
2017-07-19T05:39:19.201Z,78.16
2017-07-19T05:40:19.182Z,78.08
2017-07-19T05:41:19.179Z,78.25
2017-07-19T05:42:19.198Z,77.20
2017-07-19T05:43:19.201Z,76.14
2017-07-19T05:44:19.190Z,76.45
2017-07-19T05:45:19.152Z,75.61
2017-07-19T05:46:19.135Z,76.36
2017-07-19T05:47:18.921Z,75.25
2017-07-19T05:48:19.010Z,74.82
2017-07-19T05:49:18.962Z,73.73
2017-07-19T05:50:18.988Z,73.79
2017-07-19T05:51:19.005Z,73.42
2017-07-19T05:52:18.983Z,71.62
2017-07-19T05:53:19.005Z,71.43
2017-07-19T05:54:19.015Z,72.16
2017-07-19T05:55:19.021Z,73.90
2017-07-19T05:56:19.203Z,71.98
2017-07-19T05:57:19.236Z,72.99
2017-07-19T05:58:19.168Z,73.11
2017-07-19T05:59:19.158Z,70.93
2017-07-19T06:00:19.244Z,71.81
2017-07-19T06:01:19.261Z,72.58
2017-07-19T06:02:19.212Z,71.02
2017-07-19T06:03:19.234Z,71.60
2017-07-19T06:04:19.002Z,70.80
2017-07-19T06:05:19.053Z,72.15
2017-07-19T06:06:19.023Z,71.94
2017-07-19T06:07:18.997Z,71.28
2017-07-19T06:08:19.563Z,71.56
2017-07-19T06:09:19.025Z,70.91
2017-07-19T06:10:19.090Z,70.41
2017-07-19T06:11:19.052Z,69.58
2017-07-19T06:12:19.313Z,69.88
2017-07-19T06:13:19.213Z,70.52
2017-07-19T06:14:19.260Z,70.95
2017-07-19T06:15:19.310Z,71.12
2017-07-19T06:16:19.252Z,70.22
2017-07-19T06:17:19.308Z,69.53
2017-07-19T06:18:19.266Z,69.69
2017-07-19T06:19:19.222Z,69.42
2017-07-19T06:20:19.335Z,69.13
2017-07-19T06:21:19.089Z,71.06
2017-07-19T06:22:19.053Z,69.87
2017-07-19T06:23:19.035Z,69.64
2017-07-19T06:24:19.100Z,68.91
2017-07-19T06:25:19.098Z,69.31
2017-07-19T06:26:19.035Z,69.34
2017-07-19T06:27:19.302Z,68.87
2017-07-19T06:28:19.316Z,67.84
2017-07-19T06:29:19.242Z,66.77
2017-07-19T06:30:19.343Z,67.50
2017-07-19T06:31:19.329Z,68.66
2017-07-19T06:32:19.339Z,69.00
2017-07-19T06:33:19.329Z,68.92
2017-07-19T06:34:19.250Z,69.83
2017-07-19T06:35:19.358Z,69.95
2017-07-19T06:36:19.336Z,69.19
2017-07-19T06:37:19.058Z,69.02
2017-07-19T06:38:19.081Z,68.77
2017-07-19T06:39:19.120Z,69.24
2017-07-19T06:40:19.138Z,69.40
2017-07-19T06:41:19.155Z,68.57
2017-07-19T06:42:19.162Z,69.71
2017-07-19T06:43:19.185Z,69.67
2017-07-19T06:44:19.106Z,68.83
2017-07-19T06:45:19.428Z,69.37
2017-07-19T06:46:19.373Z,68.72
2017-07-19T06:47:19.300Z,67.88
2017-07-19T06:48:19.371Z,67.03
2017-07-19T06:49:19.358Z,67.37
2017-07-19T06:50:19.380Z,67.47
2017-07-19T06:51:19.432Z,68.40
2017-07-19T06:52:19.328Z,69.47
2017-07-19T06:53:19.413Z,69.01
2017-07-19T06:54:19.139Z,68.71
2017-07-19T06:55:19.192Z,68.84
2017-07-19T06:56:19.175Z,70.30
2017-07-19T06:57:19.238Z,67.64
2017-07-19T06:58:19.213Z,66.03
2017-07-19T06:59:19.290Z,67.09
2017-07-19T07:00:19.180Z,67.05
2017-07-19T07:01:19.466Z,66.45
2017-07-19T07:02:19.347Z,67.75
2017-07-19T07:03:19.422Z,67.46
2017-07-19T07:04:19.408Z,67.23
2017-07-19T07:05:19.400Z,68.00
2017-07-19T07:06:19.481Z,66.91
2017-07-19T07:07:19.439Z,67.32
2017-07-19T07:08:19.408Z,66.36
2017-07-19T07:09:19.152Z,68.14
2017-07-19T07:10:19.204Z,67.23
2017-07-19T07:11:19.163Z,65.13
2017-07-19T07:12:19.224Z,67.58
2017-07-19T07:13:19.279Z,66.40
2017-07-19T07:14:19.190Z,67.90
2017-07-19T07:15:19.208Z,67.30
2017-07-19T07:16:19.232Z,65.20
2017-07-19T07:17:19.241Z,65.70
2017-07-19T07:18:19.409Z,65.30
2017-07-19T07:19:19.442Z,64.55
2017-07-19T07:20:19.414Z,65.46
2017-07-19T07:21:19.424Z,65.49
2017-07-19T07:22:19.503Z,65.36
2017-07-19T07:23:19.470Z,66.96
2017-07-19T07:24:19.425Z,65.61
2017-07-19T07:25:19.495Z,67.26
2017-07-19T07:26:19.229Z,66.31
2017-07-19T07:27:19.300Z,66.72
2017-07-19T07:28:19.286Z,68.05
2017-07-19T07:29:19.239Z,66.23
2017-07-19T07:30:19.387Z,64.66
2017-07-19T07:31:19.230Z,63.39
2017-07-19T07:32:19.299Z,64.15
2017-07-19T07:33:19.318Z,64.26
2017-07-19T07:34:19.239Z,65.88
2017-07-19T07:35:19.597Z,65.66
2017-07-19T07:36:19.455Z,66.80
2017-07-19T07:37:19.489Z,65.97
2017-07-19T07:38:19.510Z,65.20
2017-07-19T07:39:19.463Z,66.61
2017-07-19T07:40:19.550Z,65.54
2017-07-19T07:41:19.467Z,65.22
2017-07-19T07:42:19.495Z,66.12
2017-07-19T07:43:19.613Z,65.53
2017-07-19T07:44:19.321Z,66.19
2017-07-19T07:45:19.308Z,64.93
2017-07-19T07:46:19.322Z,65.27
2017-07-19T07:47:19.380Z,65.45
2017-07-19T07:48:19.380Z,64.57
2017-07-19T07:49:19.269Z,63.59
2017-07-19T07:50:19.502Z,64.68
2017-07-19T07:51:19.645Z,64.09
2017-07-19T07:52:19.679Z,63.68
2017-07-19T07:53:19.724Z,63.98
2017-07-19T07:54:19.550Z,62.28
2017-07-19T07:55:19.743Z,64.84
2017-07-19T07:56:19.505Z,62.08
2017-07-19T07:57:19.569Z,62.39
2017-07-19T07:58:19.506Z,61.22
2017-07-19T07:59:19.292Z,62.08
2017-07-19T08:00:19.332Z,63.75
2017-07-19T08:01:19.330Z,62.49
2017-07-19T08:02:19.382Z,62.27
2017-07-19T08:03:19.438Z,63.19
2017-07-19T08:04:19.390Z,61.92
2017-07-19T08:05:19.403Z,61.19
2017-07-19T08:06:19.421Z,62.50
2017-07-19T08:07:19.447Z,62.18
2017-07-19T08:08:19.329Z,59.53
2017-07-19T08:09:19.580Z,59.80
2017-07-19T08:10:19.630Z,59.26
2017-07-19T08:11:19.826Z,58.87
2017-07-19T08:12:19.657Z,60.68
2017-07-19T08:13:19.635Z,59.22
2017-07-19T08:14:19.746Z,59.61
2017-07-19T08:15:19.604Z,58.33
2017-07-19T08:16:19.703Z,59.99
2017-07-19T08:17:19.439Z,58.39
2017-07-19T08:18:19.430Z,58.99
2017-07-19T08:19:19.472Z,59.45
2017-07-19T08:20:19.424Z,59.23
2017-07-19T08:21:19.384Z,57.59
2017-07-19T08:22:19.463Z,57.44
2017-07-19T08:23:19.383Z,57.08
2017-07-19T08:24:19.653Z,57.94
2017-07-19T08:25:19.734Z,57.63
2017-07-19T08:26:19.620Z,55.74
2017-07-19T08:27:19.765Z,55.99
2017-07-19T08:28:19.631Z,56.68
2017-07-19T08:29:19.739Z,56.04
2017-07-19T08:30:19.719Z,58.22
2017-07-19T08:31:19.599Z,56.99
2017-07-19T08:32:19.687Z,56.35
2017-07-19T08:33:23.290Z,57.40
2017-07-19T08:34:19.432Z,57.15
2017-07-19T08:35:19.718Z,57.04
2017-07-19T08:36:19.490Z,57.65
2017-07-19T08:37:19.429Z,57.84
2017-07-19T08:38:19.502Z,56.03
2017-07-19T08:39:19.496Z,54.72
2017-07-19T08:40:19.479Z,55.81
2017-07-19T08:41:19.465Z,57.41
2017-07-19T08:42:19.705Z,54.60
2017-07-19T08:43:19.641Z,56.49
2017-07-19T08:44:19.663Z,56.18
2017-07-19T08:45:19.653Z,54.10
2017-07-19T08:46:19.770Z,52.58
2017-07-19T08:47:19.801Z,55.78
2017-07-19T08:48:19.749Z,55.61
2017-07-19T08:49:19.457Z,53.34
2017-07-19T08:50:19.485Z,55.56
2017-07-19T08:51:19.451Z,54.90
2017-07-19T08:52:19.496Z,54.40
2017-07-19T08:53:19.525Z,54.92
2017-07-19T08:54:19.455Z,54.93
2017-07-19T08:55:19.591Z,55.50
2017-07-19T08:56:19.497Z,54.71
2017-07-19T08:57:19.793Z,52.75
2017-07-19T08:58:19.705Z,53.40
2017-07-19T08:59:19.720Z,53.85
2017-07-19T09:00:19.717Z,54.29
2017-07-19T09:01:19.700Z,53.49
2017-07-19T09:02:19.781Z,54.01
2017-07-19T09:03:19.672Z,53.85
2017-07-19T09:04:19.763Z,52.57
2017-07-19T09:05:19.761Z,52.38
2017-07-19T09:06:19.856Z,53.40
2017-07-19T09:07:19.561Z,53.07
2017-07-19T09:08:19.565Z,52.02
2017-07-19T09:09:19.611Z,51.94
2017-07-19T09:10:19.612Z,52.57
2017-07-19T09:11:19.618Z,54.40
2017-07-19T09:12:19.520Z,51.14
2017-07-19T09:13:19.526Z,51.29
2017-07-19T09:14:19.741Z,51.67
2017-07-19T09:15:19.868Z,49.51
2017-07-19T09:16:19.857Z,53.69
2017-07-19T09:17:19.885Z,50.59
2017-07-19T09:18:19.907Z,48.95
2017-07-19T09:19:19.731Z,48.30
2017-07-19T09:20:19.802Z,47.54
2017-07-19T09:21:19.785Z,49.77
2017-07-19T09:22:19.883Z,48.03
2017-07-19T09:23:19.838Z,46.70
2017-07-19T09:24:20.254Z,46.38
2017-07-19T09:25:19.656Z,46.77
2017-07-19T09:26:19.690Z,47.01
2017-07-19T09:27:20.186Z,48.68
2017-07-19T09:28:19.723Z,48.08
2017-07-19T09:29:19.594Z,48.71
2017-07-19T09:30:19.821Z,47.53
2017-07-19T09:31:19.619Z,47.84
2017-07-19T09:32:20.008Z,47.58
2017-07-19T09:33:19.808Z,44.40
2017-07-19T09:34:19.821Z,46.78
2017-07-19T09:35:20.007Z,46.75
2017-07-19T09:36:19.921Z,46.38
2017-07-19T09:37:19.811Z,43.91
2017-07-19T09:38:19.949Z,43.24
2017-07-19T09:39:19.831Z,43.36
2017-07-19T09:40:19.925Z,44.31
2017-07-19T09:41:20.025Z,42.75
2017-07-19T09:42:19.625Z,41.25
2017-07-19T09:43:19.623Z,42.32
2017-07-19T09:44:19.631Z,42.93
2017-07-19T09:45:19.678Z,41.81
2017-07-19T09:46:19.708Z,41.27
2017-07-19T09:47:19.664Z,42.81
2017-07-19T09:48:20.051Z,43.05
2017-07-19T09:49:19.813Z,44.66
2017-07-19T09:50:19.914Z,42.34
2017-07-19T09:51:19.908Z,40.54
2017-07-19T09:52:19.999Z,42.33
2017-07-19T09:53:19.906Z,42.50
2017-07-19T09:54:19.910Z,39.80
2017-07-19T09:55:19.911Z,40.51
2017-07-19T09:56:19.991Z,40.17
2017-07-19T09:57:19.660Z,40.06
2017-07-19T09:58:19.676Z,40.31
2017-07-19T09:59:19.750Z,40.31
2017-07-19T10:00:19.699Z,39.43
2017-07-19T10:01:19.827Z,38.24
2017-07-19T10:02:19.742Z,39.35
2017-07-19T10:03:19.753Z,37.51
2017-07-19T10:04:19.716Z,37.97
2017-07-19T10:05:20.189Z,36.27
2017-07-19T10:06:20.046Z,37.46
2017-07-19T10:07:19.950Z,36.97
2017-07-19T10:08:20.290Z,39.10
2017-07-19T10:09:19.904Z,39.83
2017-07-19T10:10:19.908Z,38.16
2017-07-19T10:11:20.015Z,39.55
2017-07-19T10:12:19.966Z,39.69
2017-07-19T10:13:19.722Z,36.73
2017-07-19T10:14:20.086Z,36.37
2017-07-19T10:15:19.851Z,35.20
2017-07-19T10:16:19.708Z,38.76
2017-07-19T10:17:19.768Z,38.63
2017-07-19T10:18:19.753Z,37.39
2017-07-19T10:19:19.816Z,38.88
2017-07-19T10:20:19.799Z,39.10
2017-07-19T10:21:19.745Z,37.53
2017-07-19T10:22:19.989Z,38.82
2017-07-19T10:23:20.019Z,37.49
2017-07-19T10:24:19.945Z,36.65
2017-07-19T10:25:19.988Z,36.77
2017-07-19T10:26:20.249Z,38.44
2017-07-19T10:27:20.007Z,38.71
2017-07-19T10:28:19.974Z,36.81
2017-07-19T10:29:19.997Z,36.06
2017-07-19T10:30:20.136Z,38.10
2017-07-19T10:31:20.659Z,35.27
2017-07-19T10:32:24.744Z,34.32
2017-07-19T10:33:24.720Z,33.49
2017-07-19T10:34:24.695Z,34.82
2017-07-19T10:35:19.872Z,35.53
2017-07-19T10:36:20.009Z,33.99
2017-07-19T10:37:20.273Z,33.47
2017-07-19T10:38:20.065Z,35.22
2017-07-19T10:39:20.010Z,35.88
2017-07-19T10:40:19.962Z,36.17
2017-07-19T10:41:20.029Z,37.65
2017-07-19T10:42:20.072Z,37.80
2017-07-19T10:43:20.033Z,35.63
2017-07-19T10:44:20.014Z,36.13
2017-07-19T10:45:20.280Z,34.65
2017-07-19T10:46:19.844Z,34.06
2017-07-19T10:47:19.908Z,33.39
2017-07-19T10:48:19.858Z,34.03
2017-07-19T10:49:19.873Z,34.99
2017-07-19T10:50:19.980Z,37.90
2017-07-19T10:51:19.837Z,36.65
2017-07-19T10:52:19.913Z,34.32
2017-07-19T10:53:19.996Z,34.68
2017-07-19T10:54:19.944Z,36.57
2017-07-19T10:55:20.033Z,36.66
2017-07-19T10:56:20.208Z,35.87
2017-07-19T10:57:20.077Z,36.11
2017-07-19T10:58:20.064Z,35.77
2017-07-19T10:59:20.027Z,37.24
2017-07-19T11:00:20.093Z,36.70
2017-07-19T11:01:20.125Z,37.18
2017-07-19T11:02:19.847Z,35.54
2017-07-19T11:03:19.866Z,34.45
2017-07-19T11:04:19.878Z,33.72
2017-07-19T11:05:19.973Z,33.99
2017-07-19T11:06:19.945Z,36.40
2017-07-19T11:07:19.924Z,34.86
2017-07-19T11:08:19.960Z,35.88
2017-07-19T11:09:19.921Z,34.41
2017-07-19T11:10:19.956Z,36.63
2017-07-19T11:11:19.997Z,35.63
2017-07-19T11:12:20.245Z,35.48
2017-07-19T11:13:20.215Z,35.10
2017-07-19T11:14:20.261Z,34.26
2017-07-19T11:15:20.119Z,36.07
2017-07-19T11:16:20.199Z,35.42
2017-07-19T11:17:20.183Z,36.05
2017-07-19T11:18:20.161Z,36.12
2017-07-19T11:19:19.937Z,36.35
2017-07-19T11:20:19.955Z,33.44
2017-07-19T11:21:20.518Z,35.36
2017-07-19T11:22:19.976Z,34.65
2017-07-19T11:23:19.987Z,34.82
2017-07-19T11:24:20.001Z,34.60
2017-07-19T11:25:20.216Z,34.58
2017-07-19T11:26:20.232Z,34.54
2017-07-19T11:27:19.949Z,36.38
2017-07-19T11:28:20.312Z,38.41
2017-07-19T11:29:20.101Z,34.76
2017-07-19T11:30:20.212Z,35.60
2017-07-19T11:31:20.503Z,35.27
2017-07-19T11:32:20.182Z,34.92
2017-07-19T11:33:20.276Z,35.97
2017-07-19T11:34:20.180Z,34.82
2017-07-19T11:35:19.914Z,34.31
2017-07-19T11:36:20.615Z,35.05
2017-07-19T11:37:20.014Z,35.09
2017-07-19T11:38:19.946Z,34.31
2017-07-19T11:39:20.066Z,33.02
2017-07-19T11:40:20.267Z,34.43
2017-07-19T11:41:21.980Z,35.64
2017-07-19T11:42:19.972Z,35.49
2017-07-19T11:43:20.183Z,35.52
2017-07-19T11:44:20.288Z,35.85
2017-07-19T11:45:20.183Z,34.91
2017-07-19T11:46:20.263Z,35.66
2017-07-19T11:47:20.520Z,37.92
2017-07-19T11:48:20.236Z,38.38
2017-07-19T11:49:20.287Z,39.50
2017-07-19T11:50:20.256Z,39.75
2017-07-19T11:51:20.205Z,39.54
2017-07-19T11:52:19.973Z,38.95
2017-07-19T11:53:19.966Z,38.73
2017-07-19T11:54:20.097Z,38.69
2017-07-19T11:55:20.112Z,37.59
2017-07-19T11:56:20.059Z,36.09
2017-07-19T11:57:20.072Z,37.10
2017-07-19T11:58:20.011Z,36.78
2017-07-19T11:59:20.146Z,35.34
2017-07-19T12:00:20.162Z,36.03
2017-07-19T12:01:20.077Z,35.65
2017-07-19T12:02:20.515Z,34.33
2017-07-19T12:03:20.208Z,34.16
2017-07-19T12:04:20.224Z,35.17
2017-07-19T12:05:20.225Z,35.12
2017-07-19T12:06:20.331Z,34.67
2017-07-19T12:07:20.631Z,37.36
2017-07-19T12:08:20.309Z,36.17
2017-07-19T12:09:20.060Z,34.74
2017-07-19T12:10:20.138Z,36.05
2017-07-19T12:11:20.071Z,35.79
2017-07-19T12:12:20.064Z,38.79
2017-07-19T12:13:20.108Z,37.92
2017-07-19T12:14:20.084Z,39.83
2017-07-19T12:15:20.166Z,40.94
2017-07-19T12:16:20.121Z,42.79
2017-07-19T12:17:20.589Z,42.30
2017-07-19T12:18:20.378Z,41.05
2017-07-19T12:19:20.350Z,40.46
2017-07-19T12:20:20.317Z,39.95
2017-07-19T12:21:21.208Z,39.85
2017-07-19T12:22:20.220Z,39.73
2017-07-19T12:23:20.372Z,38.04
2017-07-19T12:24:20.381Z,39.44
2017-07-19T12:25:20.672Z,38.19
2017-07-19T12:26:20.152Z,37.24
2017-07-19T12:27:20.148Z,36.32
2017-07-19T12:28:20.160Z,37.78
2017-07-19T12:29:20.168Z,36.42
2017-07-19T12:30:20.220Z,36.25
2017-07-19T12:31:20.114Z,37.18
2017-07-19T12:32:20.131Z,37.84
2017-07-19T12:33:20.244Z,38.35
2017-07-19T12:34:20.344Z,40.90
2017-07-19T12:35:20.193Z,38.90
2017-07-19T12:36:20.485Z,40.84
2017-07-19T12:37:20.744Z,42.09
2017-07-19T12:38:20.489Z,40.10
2017-07-19T12:39:20.431Z,41.29
2017-07-19T12:40:20.672Z,40.72
2017-07-19T12:41:20.428Z,41.44
2017-07-19T12:42:20.681Z,42.28
2017-07-19T12:43:20.476Z,40.24
2017-07-19T12:44:20.159Z,41.37
2017-07-19T12:45:20.203Z,38.32
2017-07-19T12:46:20.305Z,37.54
2017-07-19T12:47:20.205Z,35.67
2017-07-19T12:48:20.173Z,35.87